Time;durP1;ratioP1;P1;durP2;ratioP2;P2;SDS_P1;SDS_P2;PMS_P1;PMS_P2;Temp;Humidity;BMP_temperature;BMP_pressure;BME280_temperature;BME280_humidity;BME280_pressure;Samples;Min_cycle;Max_cycle;Signal;HPM_P1;HPM_P2
2021/01/13 00:01:03;;;;;;;2.40;0.40;;;;;;;;;;5021609;28;20286;-63
2021/01/13 00:03:30;;;;;;;1.53;1.17;;;;;;;;;;5024315;28;20837;-62
2021/01/13 00:05:57;;;;;;;0.00;0.00;;;;;;;;;;5021598;28;20709;-62
2021/01/13 00:08:24;;;;;;;0.50;0.10;;;;;;;;;;5022481;28;20686;-63
2021/01/13 00:10:51;;;;;;;0.63;0.00;;;;;;;;;;5023636;28;20216;-63
2021/01/13 00:13:18;;;;;;;1.80;0.43;;;;;;;;;;5030966;28;20239;-64
2021/01/13 00:15:44;;;;;;;0.43;0.40;;;;;;;;;;5020813;28;20219;-62
2021/01/13 00:18:12;;;;;;;0.77;0.37;;;;;;;;;;5021010;28;20195;-64
2021/01/13 00:20:39;;;;;;;5.23;0.20;;;;;;;;;;5021751;28;20569;-64
2021/01/13 00:23:06;;;;;;;2.00;0.10;;;;;;;;;;5027196;28;20188;-61
2021/01/13 00:25:33;;;;;;;0.00;0.00;;;;;;;;;;5019994;28;20980;-66
2021/01/13 00:28:01;;;;;;;7.43;0.57;;;;;;;;;;5020142;28;20180;-64
2021/01/13 00:30:27;;;;;;;0.00;0.00;;;;;;;;;;5027067;28;20199;-63
2021/01/13 00:32:59;;;;;;;0.67;0.67;;;;;;;;;;5029384;28;20707;-65
2021/01/13 00:35:29;;;;;;;0.40;0.30;;;;;;;;;;5022191;28;20188;-66
2021/01/13 00:37:56;;;;;;;0.00;0.00;;;;;;;;;;5021162;28;20195;-64
2021/01/13 00:40:23;;;;;;;0.13;0.13;;;;;;;;;;5019468;28;20195;-65
2021/01/13 00:42:51;;;;;;;0.47;0.47;;;;;;;;;;5023765;28;20269;-66
2021/01/13 00:45:19;;;;;;;0.03;0.03;;;;;;;;;;5020399;28;20188;-66
2021/01/13 00:47:50;;;;;;;0.00;0.00;;;;;;;;;;5021726;28;21003;-63
2021/01/13 00:50:17;;;;;;;0.30;0.30;;;;;;;;;;5020711;28;20188;-63
2021/01/13 00:52:49;;;;;;;10.47;0.40;;;;;;;;;;5021491;28;20213;-64
2021/01/13 00:55:17;;;;;;;0.10;0.10;;;;;;;;;;5024155;28;20185;-63
2021/01/13 00:57:48;;;;;;;0.33;0.33;;;;;;;;;;5024390;28;20194;-64
2021/01/13 01:00:16;;;;;;;0.00;0.00;;;;;;;;;;5021811;28;20188;-63
2021/01/13 01:02:43;;;;;;;0.87;0.87;;;;;;;;;;5022715;28;20184;-66
2021/01/13 01:05:10;;;;;;;0.00;0.00;;;;;;;;;;5023198;28;20279;-63
2021/01/13 01:07:41;;;;;;;0.33;0.33;;;;;;;;;;5020528;28;20200;-64
2021/01/13 01:10:09;;;;;;;0.10;0.10;;;;;;;;;;5027885;28;20207;-64
2021/01/13 01:12:38;;;;;;;0.00;0.00;;;;;;;;;;5018856;28;20665;-64
2021/01/13 01:15:05;;;;;;;0.13;0.10;;;;;;;;;;5020772;28;20247;-63
2021/01/13 01:17:32;;;;;;;1.23;0.00;;;;;;;;;;5025479;28;20694;-65
2021/01/13 01:19:59;;;;;;;2.10;0.40;;;;;;;;;;5023192;28;20565;-65
2021/01/13 01:22:25;;;;;;;0.07;0.07;;;;;;;;;;5028324;28;20702;-63
2021/01/13 01:24:52;;;;;;;11.87;1.20;;;;;;;;;;5028610;28;20180;-64
2021/01/13 01:27:19;;;;;;;0.43;0.43;;;;;;;;;;5018089;28;20230;-64
2021/01/13 01:29:45;;;;;;;1.80;0.77;;;;;;;;;;5018175;28;20463;-64
2021/01/13 01:32:12;;;;;;;0.20;0.20;;;;;;;;;;5014937;28;20195;-66
2021/01/13 01:34:39;;;;;;;0.00;0.00;;;;;;;;;;5018061;28;20281;-64
2021/01/13 01:37:06;;;;;;;6.23;0.80;;;;;;;;;;5018760;28;20196;-65
2021/01/13 01:39:33;;;;;;;0.00;0.00;;;;;;;;;;5013866;28;20291;-64
2021/01/13 01:42:00;;;;;;;0.20;0.20;;;;;;;;;;5015418;28;20690;-64
2021/01/13 01:44:27;;;;;;;0.00;0.00;;;;;;;;;;5011303;28;20226;-61
2021/01/13 01:46:56;;;;;;;0.10;0.10;;;;;;;;;;5015068;28;20233;-66
2021/01/13 01:49:25;;;;;;;3.03;0.60;;;;;;;;;;5015168;28;20198;-63
2021/01/13 01:52:14;;;;;;;2.43;0.87;;;;;;;;;;5018861;28;20192;-65
2021/01/13 01:54:46;;;;;;;6.10;1.50;;;;;;;;;;5015155;28;20254;-62
2021/01/13 01:57:17;;;;;;;0.00;0.00;;;;;;;;;;5015921;28;20279;-63
2021/01/13 01:59:52;;;;;;;0.40;0.30;;;;;;;;;;5015724;28;20203;-65
2021/01/13 02:05:47;;;;;;;0.00;0.00;;;;;;;;;;5034504;28;20198;-61
2021/01/13 02:11:18;;;;;;;0.63;0.30;;;;;;;;;;5014917;28;20223;-61
2021/01/13 02:16:53;;;;;;;3.40;2.13;;;;;;;;;;5034227;28;20182;-62
2021/01/13 02:22:27;;;;;;;0.17;0.17;;;;;;;;;;5034337;28;20210;-62
2021/01/13 02:28:05;;;;;;;0.00;0.00;;;;;;;;;;5034217;28;20194;-62
2021/01/13 02:33:57;;;;;;;0.07;0.07;;;;;;;;;;5033603;28;20227;-62
2021/01/13 02:39:29;;;;;;;1.43;0.70;;;;;;;;;;5036338;28;20207;-62
2021/01/13 02:45:04;;;;;;;0.00;0.00;;;;;;;;;;5042123;28;20206;-62
2021/01/13 02:50:37;;;;;;;0.00;0.00;;;;;;;;;;5042259;28;20179;-62
2021/01/13 02:56:08;;;;;;;1.03;0.43;;;;;;;;;;5041588;28;20188;-62
2021/01/13 03:01:39;;;;;;;0.03;0.03;;;;;;;;;;5042078;28;20345;-62
2021/01/13 03:07:14;;;;;;;0.30;0.30;;;;;;;;;;5042327;28;20190;-62
2021/01/13 03:12:44;;;;;;;0.10;0.10;;;;;;;;;;5039108;28;20230;-62
2021/01/13 03:18:28;;;;;;;0.10;0.10;;;;;;;;;;5037739;28;20219;-62
2021/01/13 03:24:01;;;;;;;0.00;0.00;;;;;;;;;;5040522;28;20229;-62
2021/01/13 03:29:32;;;;;;;0.00;0.00;;;;;;;;;;5040323;28;20190;-62
2021/01/13 03:35:03;;;;;;;0.00;0.00;;;;;;;;;;5041263;28;20627;-63
2021/01/13 14:04:22;;;;;;;0.10;0.10;;;;;;;;;;5075301;27;20619;-67
2021/01/13 14:06:49;;;;;;;1.47;0.23;;;;;;;;;;5056041;28;20186;-66
2021/01/13 14:09:16;;;;;;;1.10;0.40;;;;;;;;;;5045280;28;20171;-68
2021/01/13 14:11:43;;;;;;;0.10;0.10;;;;;;;;;;5050648;28;20273;-66
2021/01/13 14:14:10;;;;;;;0.47;0.10;;;;;;;;;;5056103;28;20179;-65
2021/01/13 14:16:36;;;;;;;0.00;0.00;;;;;;;;;;5048526;28;20299;-64
2021/01/13 14:19:04;;;;;;;0.00;0.00;;;;;;;;;;5059175;28;20190;-65
2021/01/13 14:21:30;;;;;;;0.00;0.00;;;;;;;;;;5056283;28;20178;-63
2021/01/13 14:23:57;;;;;;;0.00;0.00;;;;;;;;;;5054132;28;20220;-66
2021/01/13 14:26:24;;;;;;;1.33;1.17;;;;;;;;;;5052714;28;20201;-67
2021/01/13 14:28:51;;;;;;;2.10;1.90;;;;;;;;;;5050101;28;20184;-66
2021/01/13 14:31:17;;;;;;;0.10;0.10;;;;;;;;;;5056825;28;20180;-66
2021/01/13 14:33:44;;;;;;;10.33;0.37;;;;;;;;;;5050900;28;20330;-65
2021/01/13 14:36:14;;;;;;;0.00;0.00;;;;;;;;;;5054097;28;20197;-63
2021/01/13 14:38:41;;;;;;;5.00;0.20;;;;;;;;;;5045818;28;20168;-66
2021/01/13 14:41:08;;;;;;;2.17;0.27;;;;;;;;;;5051715;28;20205;-65
2021/01/13 14:43:35;;;;;;;1.13;0.53;;;;;;;;;;5062206;28;20327;-65
2021/01/13 14:46:04;;;;;;;0.77;0.77;;;;;;;;;;5061909;28;20523;-65
2021/01/13 14:48:31;;;;;;;0.10;0.10;;;;;;;;;;5062871;28;20183;-65
2021/01/13 14:50:58;;;;;;;0.00;0.00;;;;;;;;;;5055401;28;20610;-67
2021/01/13 14:53:24;;;;;;;0.00;0.00;;;;;;;;;;5045383;28;20228;-65
2021/01/13 14:55:52;;;;;;;0.30;0.20;;;;;;;;;;5048430;28;20235;-64
2021/01/13 14:58:18;;;;;;;0.00;0.00;;;;;;;;;;5048150;28;20529;-65
2021/01/13 15:00:45;;;;;;;0.10;0.10;;;;;;;;;;5045486;28;20195;-66
2021/01/13 15:03:12;;;;;;;4.33;1.70;;;;;;;;;;5046749;28;20320;-70
2021/01/13 15:05:39;;;;;;;4.03;0.40;;;;;;;;;;5054081;28;20247;-65
2021/01/13 15:08:06;;;;;;;2.80;0.83;;;;;;;;;;5055367;28;20175;-65
2021/01/13 15:10:34;;;;;;;0.00;0.00;;;;;;;;;;5047891;28;20222;-65
2021/01/13 15:13:00;;;;;;;0.07;0.07;;;;;;;;;;5049672;28;20749;-66
2021/01/13 15:15:27;;;;;;;0.00;0.00;;;;;;;;;;5033462;28;20226;-65
2021/01/13 15:17:57;;;;;;;3.07;0.30;;;;;;;;;;5040671;28;20185;-65
2021/01/13 15:20:23;;;;;;;5.93;0.60;;;;;;;;;;5038635;28;20641;-64
2021/01/13 15:22:50;;;;;;;1.13;1.03;;;;;;;;;;5040465;28;20276;-66
2021/01/13 15:25:17;;;;;;;0.10;0.10;;;;;;;;;;5042674;28;20557;-66
2021/01/13 15:27:47;;;;;;;0.20;0.20;;;;;;;;;;5037685;28;20180;-65
2021/01/13 15:30:14;;;;;;;0.00;0.00;;;;;;;;;;5035322;28;20209;-63
2021/01/13 15:32:41;;;;;;;2.30;0.13;;;;;;;;;;5039906;28;20192;-64
2021/01/13 15:35:09;;;;;;;6.33;1.10;;;;;;;;;;5036604;28;20617;-64
2021/01/13 15:37:36;;;;;;;0.00;0.00;;;;;;;;;;5043659;28;20318;-64
2021/01/13 15:40:04;;;;;;;0.60;0.40;;;;;;;;;;5033794;28;20393;-68
2021/01/13 15:42:31;;;;;;;1.40;0.40;;;;;;;;;;5036984;28;20250;-65
2021/01/13 15:44:57;;;;;;;0.50;0.50;;;;;;;;;;5034001;28;20727;-63
2021/01/13 15:47:24;;;;;;;0.37;0.37;;;;;;;;;;5038136;28;20283;-66
2021/01/13 15:49:51;;;;;;;0.07;0.07;;;;;;;;;;5040480;28;20267;-67
2021/01/13 15:52:22;;;;;;;0.20;0.20;;;;;;;;;;5036527;28;20210;-68
2021/01/13 15:54:49;;;;;;;0.50;0.10;;;;;;;;;;5041054;28;20184;-66
2021/01/13 15:57:22;;;;;;;0.77;0.30;;;;;;;;;;5034079;28;20179;-62
2021/01/13 15:59:50;;;;;;;0.10;0.10;;;;;;;;;;5033620;28;20250;-62
2021/01/13 16:02:17;;;;;;;0.00;0.00;;;;;;;;;;5046370;28;20325;-64
2021/01/13 16:04:44;;;;;;;0.47;0.40;;;;;;;;;;5044586;28;20617;-63
2021/01/13 16:07:13;;;;;;;3.70;1.10;;;;;;;;;;5032907;28;20799;-62
2021/01/13 16:09:40;;;;;;;2.40;2.30;;;;;;;;;;5036183;28;20185;-62
2021/01/13 16:12:10;;;;;;;0.10;0.10;;;;;;;;;;5029520;28;20188;-62
2021/01/13 16:14:40;;;;;;;0.00;0.00;;;;;;;;;;5036020;28;20183;-62
2021/01/13 16:17:07;;;;;;;2.20;1.60;;;;;;;;;;5037423;28;20185;-63
2021/01/13 16:19:34;;;;;;;1.10;0.10;;;;;;;;;;5030026;28;20191;-63
2021/01/13 16:22:02;;;;;;;0.47;0.33;;;;;;;;;;5034989;28;20179;-64
2021/01/13 16:24:29;;;;;;;0.57;0.27;;;;;;;;;;5038642;28;20215;-65
2021/01/13 16:26:56;;;;;;;0.40;0.40;;;;;;;;;;5035798;28;20184;-65
2021/01/13 16:29:23;;;;;;;2.13;0.63;;;;;;;;;;5037674;28;20176;-64
2021/01/13 16:31:51;;;;;;;0.20;0.20;;;;;;;;;;5030539;28;20748;-64
2021/01/13 16:34:21;;;;;;;1.30;0.67;;;;;;;;;;5029567;28;20168;-65
2021/01/13 16:36:48;;;;;;;0.57;0.13;;;;;;;;;;5037950;28;20310;-64
2021/01/13 16:39:15;;;;;;;0.10;0.10;;;;;;;;;;5035910;28;20180;-64
2021/01/13 16:41:46;;;;;;;0.10;0.10;;;;;;;;;;5043168;28;20177;-63
2021/01/13 16:44:24;;;;;;;0.10;0.10;;;;;;;;;;5033971;28;20216;-64
2021/01/13 16:46:51;;;;;;;0.10;0.10;;;;;;;;;;5034153;28;20180;-64
2021/01/13 16:49:19;;;;;;;5.00;0.50;;;;;;;;;;5040393;28;20222;-64
2021/01/13 16:51:50;;;;;;;0.10;0.10;;;;;;;;;;5035490;28;20177;-64
2021/01/13 16:54:17;;;;;;;5.10;0.30;;;;;;;;;;5037511;28;20653;-65
2021/01/13 16:56:47;;;;;;;0.00;0.00;;;;;;;;;;5035271;28;20195;-66
2021/01/13 16:59:15;;;;;;;4.40;4.17;;;;;;;;;;5039473;28;20179;-62
2021/01/13 17:01:43;;;;;;;0.27;0.10;;;;;;;;;;5041781;28;20657;-64
2021/01/13 17:04:10;;;;;;;0.10;0.10;;;;;;;;;;5033007;28;20247;-64
2021/01/13 17:06:37;;;;;;;0.20;0.20;;;;;;;;;;5026636;28;20193;-62
2021/01/13 17:09:05;;;;;;;3.30;1.60;;;;;;;;;;5039793;28;20184;-66
2021/01/13 17:11:36;;;;;;;0.87;0.43;;;;;;;;;;5033219;28;20184;-64
2021/01/13 17:14:04;;;;;;;0.30;0.30;;;;;;;;;;5037132;28;20191;-64
2021/01/13 17:16:32;;;;;;;0.20;0.20;;;;;;;;;;5031718;28;20210;-66
2021/01/13 17:18:59;;;;;;;0.23;0.23;;;;;;;;;;5040621;28;20176;-62
2021/01/13 17:21:35;;;;;;;0.87;0.53;;;;;;;;;;5029075;28;20279;-64
2021/01/13 17:24:01;;;;;;;0.10;0.10;;;;;;;;;;5035584;28;20246;-65
2021/01/13 17:26:28;;;;;;;0.47;0.30;;;;;;;;;;5031142;28;20188;-62
2021/01/13 17:28:55;;;;;;;0.10;0.10;;;;;;;;;;5044952;28;20254;-63
2021/01/13 17:31:22;;;;;;;1.50;0.73;;;;;;;;;;5037845;28;20672;-62
2021/01/13 17:33:49;;;;;;;0.13;0.07;;;;;;;;;;5030786;28;20270;-64
2021/01/13 17:36:15;;;;;;;1.00;0.10;;;;;;;;;;5032084;28;20191;-64
2021/01/13 17:38:42;;;;;;;0.10;0.10;;;;;;;;;;5029072;28;20199;-62
2021/01/13 17:41:09;;;;;;;1.43;1.33;;;;;;;;;;5040173;28;20203;-61
2021/01/13 17:43:36;;;;;;;0.27;0.27;;;;;;;;;;5032635;28;20211;-62
2021/01/13 17:46:04;;;;;;;0.00;0.00;;;;;;;;;;5028616;28;20188;-64
2021/01/13 17:48:30;;;;;;;0.13;0.13;;;;;;;;;;5036280;28;20211;-63
2021/01/13 17:51:03;;;;;;;0.30;0.30;;;;;;;;;;5032079;28;20168;-63
2021/01/13 17:53:29;;;;;;;0.10;0.10;;;;;;;;;;5039636;28;20183;-64
2021/01/13 17:55:59;;;;;;;0.10;0.10;;;;;;;;;;5037495;28;20342;-62
2021/01/13 17:58:27;;;;;;;0.30;0.10;;;;;;;;;;5035015;28;20179;-63
2021/01/13 18:00:57;;;;;;;8.40;0.87;;;;;;;;;;5034526;28;20285;-64
2021/01/13 18:03:25;;;;;;;0.17;0.17;;;;;;;;;;5043367;28;20431;-64
2021/01/13 18:06:00;;;;;;;3.10;1.50;;;;;;;;;;5033199;28;20548;-62
2021/01/13 18:08:26;;;;;;;2.77;0.87;;;;;;;;;;5036981;28;20193;-63
2021/01/13 18:10:54;;;;;;;0.00;0.00;;;;;;;;;;5035239;28;20176;-64
2021/01/13 18:13:21;;;;;;;1.93;1.33;;;;;;;;;;5035721;28;20599;-64
2021/01/13 18:15:48;;;;;;;0.00;0.00;;;;;;;;;;5036498;28;20180;-63
2021/01/13 18:18:15;;;;;;;0.10;0.10;;;;;;;;;;5036809;28;21233;-63
2021/01/13 18:20:43;;;;;;;0.13;0.13;;;;;;;;;;5034568;28;20803;-63
2021/01/13 18:23:11;;;;;;;0.23;0.23;;;;;;;;;;5032357;28;20311;-64
2021/01/13 18:25:38;;;;;;;2.37;0.10;;;;;;;;;;5034489;28;20216;-63
2021/01/13 18:28:05;;;;;;;0.10;0.10;;;;;;;;;;5036437;28;20224;-65
2021/01/13 18:30:32;;;;;;;0.10;0.10;;;;;;;;;;5037312;28;20185;-62
2021/01/13 18:32:58;;;;;;;0.10;0.10;;;;;;;;;;5035931;28;20220;-63
2021/01/13 18:35:26;;;;;;;0.20;0.20;;;;;;;;;;5032965;28;20254;-62
2021/01/13 18:37:57;;;;;;;0.23;0.10;;;;;;;;;;5036875;28;20184;-63
2021/01/13 18:40:25;;;;;;;0.20;0.20;;;;;;;;;;5035248;28;20183;-62
2021/01/13 18:43:05;;;;;;;1.20;0.10;;;;;;;;;;5033091;28;21232;-63
2021/01/13 18:45:32;;;;;;;0.10;0.10;;;;;;;;;;5025258;28;20181;-62
2021/01/13 18:47:59;;;;;;;0.30;0.23;;;;;;;;;;5034392;28;20183;-64
2021/01/13 18:50:28;;;;;;;0.10;0.10;;;;;;;;;;5036760;28;20180;-64
2021/01/13 18:52:55;;;;;;;0.20;0.20;;;;;;;;;;5039370;28;20181;-64
2021/01/13 18:55:21;;;;;;;0.67;0.40;;;;;;;;;;5044465;28;20245;-63
2021/01/13 18:57:49;;;;;;;0.00;0.00;;;;;;;;;;5035028;28;20181;-63
2021/01/13 19:00:16;;;;;;;0.53;0.33;;;;;;;;;;5040048;28;20344;-65
2021/01/13 19:02:42;;;;;;;0.10;0.10;;;;;;;;;;5041953;28;20870;-62
2021/01/13 19:05:09;;;;;;;5.50;0.63;;;;;;;;;;5039081;28;20196;-63
2021/01/13 19:07:36;;;;;;;0.10;0.10;;;;;;;;;;5037496;28;20191;-63
2021/01/13 19:10:04;;;;;;;0.63;0.63;;;;;;;;;;5039931;28;20186;-63
2021/01/13 19:12:31;;;;;;;0.00;0.00;;;;;;;;;;5037467;28;20202;-64
2021/01/13 19:14:58;;;;;;;0.10;0.10;;;;;;;;;;5037520;28;20180;-63
2021/01/13 19:17:26;;;;;;;0.67;0.33;;;;;;;;;;5036552;28;20462;-64
2021/01/13 19:19:53;;;;;;;0.00;0.00;;;;;;;;;;5034881;28;20181;-64
2021/01/13 19:22:22;;;;;;;0.50;0.30;;;;;;;;;;5040427;28;21499;-64
2021/01/13 19:24:49;;;;;;;0.00;0.00;;;;;;;;;;5039240;28;20195;-65
2021/01/13 19:27:16;;;;;;;0.27;0.27;;;;;;;;;;5037870;28;20239;-64
2021/01/13 19:29:43;;;;;;;0.00;0.00;;;;;;;;;;5035060;28;20173;-66
2021/01/13 19:32:11;;;;;;;0.00;0.00;;;;;;;;;;5039293;28;20191;-65
2021/01/13 19:34:38;;;;;;;0.30;0.30;;;;;;;;;;5032735;28;20216;-66
2021/01/13 19:37:06;;;;;;;0.00;0.00;;;;;;;;;;5045224;28;20234;-64
2021/01/13 19:39:33;;;;;;;1.50;0.10;;;;;;;;;;5036541;28;20188;-66
2021/01/13 19:42:00;;;;;;;0.10;0.10;;;;;;;;;;5033397;28;20234;-66
2021/01/13 19:44:28;;;;;;;0.10;0.10;;;;;;;;;;5024132;28;20801;-64
2021/01/13 19:46:55;;;;;;;0.33;0.10;;;;;;;;;;5025321;28;20191;-66
2021/01/13 19:49:22;;;;;;;0.00;0.00;;;;;;;;;;5032320;28;20180;-65
2021/01/13 19:51:49;;;;;;;1.57;0.20;;;;;;;;;;5038090;28;20208;-64
2021/01/13 19:54:17;;;;;;;0.00;0.00;;;;;;;;;;5036227;28;20199;-65
2021/01/13 19:56:44;;;;;;;0.83;0.50;;;;;;;;;;5037255;28;20176;-65
2021/01/13 19:59:11;;;;;;;0.00;0.00;;;;;;;;;;5036115;28;20538;-66
2021/01/13 20:01:45;;;;;;;6.40;0.80;;;;;;;;;;5032157;28;21022;-64
2021/01/13 20:04:12;;;;;;;0.00;0.00;;;;;;;;;;5037684;28;20308;-64
2021/01/13 20:06:42;;;;;;;0.00;0.00;;;;;;;;;;5028013;28;20635;-65
2021/01/13 20:09:15;;;;;;;1.10;0.73;;;;;;;;;;5039959;28;20195;-65
2021/01/13 20:11:45;;;;;;;0.00;0.00;;;;;;;;;;5034452;28;20187;-66
2021/01/13 20:14:13;;;;;;;2.67;0.33;;;;;;;;;;5030518;28;20867;-65
2021/01/13 20:16:40;;;;;;;0.10;0.10;;;;;;;;;;5034690;28;20202;-65
2021/01/13 20:19:07;;;;;;;0.00;0.00;;;;;;;;;;5038603;28;20184;-65
2021/01/13 20:21:35;;;;;;;0.00;0.00;;;;;;;;;;5035733;28;20222;-63
2021/01/13 20:24:02;;;;;;;0.10;0.10;;;;;;;;;;5035611;28;20251;-63
2021/01/13 20:26:29;;;;;;;0.00;0.00;;;;;;;;;;5039618;28;20193;-63
2021/01/13 20:28:55;;;;;;;0.00;0.00;;;;;;;;;;5029277;28;20210;-63
2021/01/13 20:31:22;;;;;;;0.00;0.00;;;;;;;;;;5040985;28;20188;-63
2021/01/13 20:33:49;;;;;;;0.00;0.00;;;;;;;;;;5028970;28;20184;-62
2021/01/13 20:36:16;;;;;;;0.00;0.00;;;;;;;;;;5033018;28;20497;-62
2021/01/13 20:38:42;;;;;;;0.10;0.10;;;;;;;;;;5036473;28;20175;-61
2021/01/13 20:41:09;;;;;;;0.10;0.10;;;;;;;;;;5030468;28;20188;-61
2021/01/13 20:43:36;;;;;;;0.00;0.00;;;;;;;;;;5033345;28;20215;-65
2021/01/13 20:46:03;;;;;;;0.00;0.00;;;;;;;;;;5039398;28;20191;-64
2021/01/13 20:48:29;;;;;;;0.00;0.00;;;;;;;;;;5026132;28;20200;-63
2021/01/13 20:50:56;;;;;;;0.00;0.00;;;;;;;;;;5024063;28;20189;-65
2021/01/13 20:53:23;;;;;;;7.57;7.00;;;;;;;;;;5034898;28;20192;-66
2021/01/13 20:55:56;;;;;;;0.00;0.00;;;;;;;;;;5041782;28;20203;-64
2021/01/13 20:58:23;;;;;;;0.00;0.00;;;;;;;;;;5043790;28;20684;-63
2021/01/13 21:00:51;;;;;;;0.30;0.10;;;;;;;;;;5039174;28;20185;-64
2021/01/13 21:03:18;;;;;;;0.00;0.00;;;;;;;;;;5035702;28;20732;-64
2021/01/13 21:05:44;;;;;;;0.00;0.00;;;;;;;;;;5043314;28;20270;-65
2021/01/13 21:08:11;;;;;;;11.77;1.87;;;;;;;;;;5036343;28;20564;-64
2021/01/13 21:10:38;;;;;;;1.90;0.67;;;;;;;;;;5029833;28;20194;-63
2021/01/13 21:13:04;;;;;;;0.00;0.00;;;;;;;;;;5027443;28;20210;-63
2021/01/13 21:15:31;;;;;;;0.00;0.00;;;;;;;;;;5037483;28;20202;-64
2021/01/13 21:17:58;;;;;;;0.00;0.00;;;;;;;;;;5035501;28;20180;-64
2021/01/13 21:20:25;;;;;;;0.00;0.00;;;;;;;;;;5034590;28;20322;-64
2021/01/13 21:22:51;;;;;;;0.00;0.00;;;;;;;;;;5033468;28;20211;-64
2021/01/13 21:25:18;;;;;;;0.70;0.07;;;;;;;;;;5034160;28;20626;-66
2021/01/13 21:27:45;;;;;;;0.00;0.00;;;;;;;;;;5036079;28;20183;-66
2021/01/13 21:30:12;;;;;;;0.00;0.00;;;;;;;;;;5030080;28;20191;-65
2021/01/13 21:32:39;;;;;;;2.60;1.50;;;;;;;;;;5035570;28;20626;-65
2021/01/13 21:35:06;;;;;;;0.00;0.00;;;;;;;;;;5035160;28;20192;-64
2021/01/13 21:37:40;;;;;;;0.00;0.00;;;;;;;;;;5029675;28;20184;-64
2021/01/13 21:40:07;;;;;;;0.00;0.00;;;;;;;;;;5038970;28;20182;-65
2021/01/13 21:42:34;;;;;;;0.00;0.00;;;;;;;;;;5034847;28;20870;-65
2021/01/13 21:45:00;;;;;;;0.00;0.00;;;;;;;;;;5030922;28;20179;-65
2021/01/13 21:47:27;;;;;;;0.00;0.00;;;;;;;;;;5044020;28;20633;-65
2021/01/13 21:49:54;;;;;;;0.00;0.00;;;;;;;;;;5029443;28;20657;-65
2021/01/13 21:52:20;;;;;;;0.00;0.00;;;;;;;;;;5034470;28;20176;-63
2021/01/13 21:54:47;;;;;;;0.00;0.00;;;;;;;;;;5043187;28;20739;-65
2021/01/13 21:57:13;;;;;;;0.00;0.00;;;;;;;;;;5033207;28;20183;-65
2021/01/13 21:59:40;;;;;;;0.00;0.00;;;;;;;;;;5033708;28;20176;-69
2021/01/13 22:02:07;;;;;;;0.00;0.00;;;;;;;;;;5033803;28;20241;-66
2021/01/13 22:04:34;;;;;;;0.00;0.00;;;;;;;;;;5037325;28;20223;-65
2021/01/13 22:07:02;;;;;;;0.00;0.00;;;;;;;;;;5027523;28;20169;-68
2021/01/13 22:09:29;;;;;;;0.00;0.00;;;;;;;;;;5034153;28;20617;-65
2021/01/13 22:11:57;;;;;;;0.00;0.00;;;;;;;;;;5037909;28;20218;-69
2021/01/13 22:14:23;;;;;;;0.00;0.00;;;;;;;;;;5031583;28;20179;-66
2021/01/13 22:16:51;;;;;;;0.00;0.00;;;;;;;;;;5032971;28;20518;-67
2021/01/13 22:19:18;;;;;;;0.77;0.17;;;;;;;;;;5032845;28;20601;-66
2021/01/13 22:21:45;;;;;;;0.00;0.00;;;;;;;;;;5033331;28;20274;-68
2021/01/13 22:24:12;;;;;;;0.00;0.00;;;;;;;;;;5031731;28;20855;-65
2021/01/13 22:26:38;;;;;;;0.00;0.00;;;;;;;;;;5047230;28;20198;-65
2021/01/13 22:29:05;;;;;;;0.00;0.00;;;;;;;;;;5039741;28;20269;-66
2021/01/13 22:31:34;;;;;;;0.00;0.00;;;;;;;;;;5039728;28;20743;-65
2021/01/13 22:34:01;;;;;;;0.23;0.23;;;;;;;;;;5043620;28;20354;-67
2021/01/13 22:36:28;;;;;;;0.10;0.10;;;;;;;;;;5037477;28;20180;-65
2021/01/13 22:38:54;;;;;;;0.00;0.00;;;;;;;;;;5036737;28;20514;-66
2021/01/13 22:41:25;;;;;;;1.17;0.50;;;;;;;;;;5040056;28;20588;-66
2021/01/13 22:43:52;;;;;;;1.83;0.10;;;;;;;;;;5041996;28;20219;-66
2021/01/13 22:46:19;;;;;;;1.20;0.33;;;;;;;;;;5036238;28;20191;-65
2021/01/13 22:48:47;;;;;;;0.10;0.10;;;;;;;;;;5041731;28;20183;-63
2021/01/13 22:51:13;;;;;;;0.00;0.00;;;;;;;;;;5033230;28;20184;-65
2021/01/13 22:53:40;;;;;;;0.00;0.00;;;;;;;;;;5026371;28;20244;-64
2021/01/13 22:56:07;;;;;;;0.00;0.00;;;;;;;;;;5037432;28;20257;-66
2021/01/13 22:58:33;;;;;;;0.00;0.00;;;;;;;;;;5039811;28;20240;-64
2021/01/13 23:01:00;;;;;;;0.00;0.00;;;;;;;;;;5037134;28;20184;-64
2021/01/13 23:03:27;;;;;;;0.00;0.00;;;;;;;;;;5034071;28;20239;-63
2021/01/13 23:05:53;;;;;;;0.00;0.00;;;;;;;;;;5037808;28;20188;-64
2021/01/13 23:08:20;;;;;;;0.03;0.03;;;;;;;;;;5029986;28;20212;-64
2021/01/13 23:10:47;;;;;;;0.00;0.00;;;;;;;;;;5038543;28;20626;-64
2021/01/13 23:13:14;;;;;;;0.00;0.00;;;;;;;;;;5034163;28;20192;-64
2021/01/13 23:15:41;;;;;;;0.00;0.00;;;;;;;;;;5033845;28;20178;-64
2021/01/13 23:18:11;;;;;;;0.00;0.00;;;;;;;;;;5038966;28;20215;-63
2021/01/13 23:20:38;;;;;;;0.00;0.00;;;;;;;;;;5032253;28;20191;-64
2021/01/13 23:23:05;;;;;;;0.00;0.00;;;;;;;;;;5033891;28;21159;-63
2021/01/13 23:25:32;;;;;;;0.00;0.00;;;;;;;;;;5038027;28;20557;-65
2021/01/13 23:28:00;;;;;;;0.00;0.00;;;;;;;;;;5039267;28;20217;-64
2021/01/13 23:30:38;;;;;;;0.00;0.00;;;;;;;;;;5043154;28;21103;-63
2021/01/13 23:33:05;;;;;;;0.00;0.00;;;;;;;;;;5042855;28;20601;-64
2021/01/13 23:35:33;;;;;;;0.77;0.77;;;;;;;;;;5036557;28;20263;-64
2021/01/13 23:38:01;;;;;;;0.00;0.00;;;;;;;;;;5028952;28;20211;-65
2021/01/13 23:40:28;;;;;;;2.47;0.10;;;;;;;;;;5042214;28;20184;-63
2021/01/13 23:42:55;;;;;;;0.50;0.50;;;;;;;;;;5036622;28;20216;-64
2021/01/13 23:45:22;;;;;;;0.00;0.00;;;;;;;;;;5040012;28;20191;-63
2021/01/13 23:47:50;;;;;;;0.00;0.00;;;;;;;;;;5032916;28;20186;-63
2021/01/13 23:50:17;;;;;;;0.00;0.00;;;;;;;;;;5037743;28;20207;-63
2021/01/13 23:52:44;;;;;;;0.00;0.00;;;;;;;;;;5037008;28;20202;-64
2021/01/13 23:55:14;;;;;;;0.00;0.00;;;;;;;;;;5036776;28;20288;-61
2021/01/13 23:57:41;;;;;;;0.00;0.00;;;;;;;;;;5039010;28;20193;-62
